Time;durP1;ratioP1;P1;durP2;ratioP2;P2;SDS_P1;SDS_P2;PMS_P1;PMS_P2;Temp;Humidity;BMP_temperature;BMP_pressure;BME280_temperature;BME280_humidity;BME280_pressure;Samples;Min_cycle;Max_cycle;Signal;HPM_P1;HPM_P2
2022/09/18 00:01:41;;;;;;;12.55;2.22;;;11.30;99.90;;;;;;5157670;27;20055;-82
2022/09/18 00:04:10;;;;;;;9.77;2.28;;;11.20;99.90;;;;;;5140195;27;20077;-82
2022/09/18 00:06:37;;;;;;;8.23;1.98;;;11.20;99.90;;;;;;5135159;27;20043;-82
2022/09/18 00:09:05;;;;;;;11.95;2.50;;;11.20;99.90;;;;;;5148357;27;20046;-82
2022/09/18 00:11:35;;;;;;;10.15;2.50;;;11.70;99.90;;;;;;5139404;27;20567;-82
2022/09/18 00:14:01;;;;;;;13.00;2.28;;;12.50;99.90;;;;;;5139471;27;20046;-82
2022/09/18 00:16:27;;;;;;;12.98;2.17;;;11.30;99.90;;;;;;5139355;27;20390;-82
2022/09/18 00:18:53;;;;;;;11.82;2.33;;;12.40;99.90;;;;;;5167769;27;20040;-82
2022/09/18 00:21:23;;;;;;;11.68;2.13;;;12.10;99.90;;;;;;5150534;27;20118;-82
2022/09/18 00:23:50;;;;;;;18.25;2.92;;;11.40;99.90;;;;;;5170486;27;20050;-83
2022/09/18 00:26:16;;;;;;;14.98;2.75;;;12.20;99.90;;;;;;5162358;27;20404;-82
2022/09/18 00:28:43;;;;;;;14.13;2.17;;;11.80;99.90;;;;;;5139283;27;20043;-82
2022/09/18 00:31:16;;;;;;;13.93;2.40;;;11.50;99.90;;;;;;5130237;27;20030;-82
2022/09/18 00:33:42;;;;;;;9.10;2.15;;;12.30;99.90;;;;;;5146530;27;20095;-82
2022/09/18 00:36:10;;;;;;;15.93;2.83;;;11.40;99.90;;;;;;5145236;27;20098;-82
2022/09/18 00:38:36;;;;;;;13.93;2.50;;;11.40;99.90;;;;;;5176551;27;20042;-82
2022/09/18 00:41:04;;;;;;;10.88;2.10;;;11.40;99.90;;;;;;5159335;27;20375;-82
2022/09/18 00:43:32;;;;;;;15.27;2.67;;;11.40;99.90;;;;;;5142258;27;20120;-82
2022/09/18 00:46:08;;;;;;;11.60;2.05;;;12.00;99.90;;;;;;5159887;27;20474;-82
2022/09/18 00:48:37;;;;;;;15.75;2.55;;;11.30;99.90;;;;;;5173986;27;20446;-82
2022/09/18 00:51:03;;;;;;;11.52;2.00;;;11.30;99.90;;;;;;5158739;27;20122;-82
2022/09/18 00:53:29;;;;;;;12.70;2.17;;;11.30;99.90;;;;;;5176616;27;20042;-82
2022/09/18 00:55:57;;;;;;;8.18;2.28;;;12.40;99.90;;;;;;5157200;27;20064;-82
2022/09/18 00:58:23;;;;;;;14.20;2.17;;;11.70;99.90;;;;;;5147296;27;20479;-82
2022/09/18 01:00:49;;;;;;;9.63;2.00;;;12.10;99.90;;;;;;5156396;27;20045;-82
2022/09/18 01:03:14;;;;;;;7.88;1.98;;;11.40;99.90;;;;;;5138298;27;20075;-82
2022/09/18 01:05:59;;;;;;;12.85;2.35;;;11.40;99.90;;;;;;5167756;27;20106;-82
2022/09/18 01:08:30;;;;;;;10.63;2.00;;;11.40;99.90;;;;;;5159035;27;20046;-82
2022/09/18 01:11:04;;;;;;;9.05;2.15;;;11.40;99.90;;;;;;5158561;27;20407;-82
2022/09/18 01:13:56;;;;;;;8.15;2.15;;;11.30;99.90;;;;;;5157866;27;20034;-82
2022/09/18 01:16:39;;;;;;;10.57;1.80;;;11.30;99.90;;;;;;5144787;27;20106;-82
2022/09/18 01:19:05;;;;;;;10.65;2.05;;;12.20;99.90;;;;;;5142387;27;20044;-82
2022/09/18 01:22:04;;;;;;;9.82;1.67;;;11.40;99.90;;;;;;5156545;27;20514;-82
2022/09/18 01:24:41;;;;;;;11.73;1.85;;;11.30;99.90;;;;;;5149776;27;20123;-82
2022/09/18 01:27:15;;;;;;;6.95;1.70;;;11.30;99.90;;;;;;5138879;27;20039;-82
2022/09/18 01:29:54;;;;;;;10.35;2.00;;;11.20;99.90;;;;;;5174498;27;20242;-82
2022/09/18 01:32:27;;;;;;;9.55;2.00;;;11.20;99.90;;;;;;5176314;27;20042;-82
2022/09/18 01:35:38;;;;;;;13.93;2.10;;;11.30;99.90;;;;;;5158168;27;20122;-82
2022/09/18 01:38:34;;;;;;;9.85;1.98;;;11.30;99.90;;;;;;5154084;27;20046;-82
2022/09/18 01:41:06;;;;;;;11.05;1.92;;;11.30;99.90;;;;;;5157218;27;20078;-82
2022/09/18 01:43:34;;;;;;;13.52;2.50;;;12.20;99.90;;;;;;5157732;27;20121;-82
2022/09/18 01:46:05;;;;;;;10.52;2.20;;;11.70;99.90;;;;;;5156114;27;20047;-82
2022/09/18 01:48:38;;;;;;;8.27;2.30;;;11.20;99.90;;;;;;5142682;27;20079;-81
2022/09/18 01:51:35;;;;;;;12.52;2.15;;;11.60;99.90;;;;;;5135366;27;20047;-82
2022/09/18 01:54:11;;;;;;;6.07;1.58;;;11.20;99.90;;;;;;5157296;27;20046;-82
2022/09/18 01:56:42;;;;;;;8.65;2.10;;;11.20;99.90;;;;;;5138114;27;20034;-82
2022/09/18 01:59:14;;;;;;;9.18;2.13;;;11.70;99.90;;;;;;5144331;27;20058;-82
2022/09/18 02:01:45;;;;;;;8.88;1.80;;;11.10;99.90;;;;;;5168595;27;20328;-82
2022/09/18 02:04:17;;;;;;;11.15;1.70;;;11.90;99.90;;;;;;5176959;27;20509;-82
2022/09/18 02:06:59;;;;;;;10.38;2.40;;;11.10;99.90;;;;;;5158428;27;20053;-82
2022/09/18 02:09:25;;;;;;;12.02;2.38;;;11.80;99.90;;;;;;5175900;27;20059;-82
2022/09/18 02:11:55;;;;;;;14.50;2.30;;;11.10;99.90;;;;;;5175789;27;20113;-82
2022/09/18 02:14:34;;;;;;;14.02;2.35;;;11.10;99.90;;;;;;5154181;27;20167;-82
2022/09/18 02:17:11;;;;;;;15.27;2.80;;;12.20;99.90;;;;;;5156783;27;20035;-82
2022/09/18 02:19:50;;;;;;;14.25;2.10;;;11.20;99.90;;;;;;5152499;27;20047;-82
2022/09/18 02:22:20;;;;;;;13.82;2.33;;;11.20;99.90;;;;;;5135646;27;20122;-82
2022/09/18 02:24:49;;;;;;;9.75;2.40;;;11.30;99.90;;;;;;5176111;27;20042;-83
2022/09/18 02:27:16;;;;;;;13.98;2.08;;;11.40;99.90;;;;;;5167242;27;20038;-82
2022/09/18 02:29:44;;;;;;;12.07;2.13;;;11.30;99.90;;;;;;5137315;27;20106;-82
2022/09/18 02:32:10;;;;;;;12.23;2.55;;;12.20;99.90;;;;;;5148970;27;20042;-82
2022/09/18 02:34:36;;;;;;;9.07;2.00;;;12.40;99.90;;;;;;5172763;27;20090;-82
2022/09/18 02:37:35;;;;;;;13.32;2.28;;;11.40;99.90;;;;;;5146153;27;20332;-82
2022/09/18 02:40:18;;;;;;;9.15;2.03;;;11.40;99.90;;;;;;5175414;27;20105;-80
2022/09/18 02:43:04;;;;;;;11.18;2.13;;;11.40;99.90;;;;;;5156771;27;20038;-80
2022/09/18 02:45:41;;;;;;;11.20;1.80;;;11.30;99.90;;;;;;5176079;27;20054;-82
2022/09/18 02:48:34;;;;;;;13.27;2.55;;;11.40;99.90;;;;;;5147897;27;20364;-81
2022/09/18 02:51:29;;;;;;;9.90;2.08;;;11.40;99.90;;;;;;5153978;27;20491;-81
2022/09/18 02:54:06;;;;;;;8.52;1.90;;;11.30;99.90;;;;;;5136584;27;20098;-81
2022/09/18 02:56:43;;;;;;;13.50;2.30;;;11.40;99.90;;;;;;5136930;27;20099;-81
2022/09/18 02:59:15;;;;;;;11.63;2.20;;;11.40;99.90;;;;;;5156655;27;20039;-81
2022/09/18 03:01:44;;;;;;;11.63;2.17;;;11.30;99.90;;;;;;5136428;27;20121;-81
2022/09/18 03:04:18;;;;;;;11.63;2.20;;;12.30;99.90;;;;;;5175759;27;20046;-81
2022/09/18 03:06:44;;;;;;;10.15;2.38;;;11.40;99.90;;;;;;5156460;27;20125;-81
2022/09/18 03:09:09;;;;;;;10.32;2.30;;;11.40;99.90;;;;;;5163106;27;20078;-81
2022/09/18 03:11:36;;;;;;;13.38;2.20;;;11.40;99.90;;;;;;5154258;27;20555;-81
2022/09/18 03:14:02;;;;;;;10.10;2.30;;;12.50;99.90;;;;;;5139302;27;20074;-81
2022/09/18 03:16:27;;;;;;;11.77;2.15;;;11.40;99.90;;;;;;5166054;27;20382;-81
2022/09/18 03:18:53;;;;;;;11.57;2.00;;;11.40;99.90;;;;;;5157695;27;20130;-81
2022/09/18 03:21:19;;;;;;;14.55;2.22;;;11.50;99.90;;;;;;5152923;27;20064;-81
2022/09/18 03:23:45;;;;;;;8.75;1.75;;;11.40;99.90;;;;;;5152890;27;20082;-81
2022/09/18 03:26:11;;;;;;;9.52;1.90;;;11.30;99.90;;;;;;5167727;27;20103;-82
2022/09/18 03:28:37;;;;;;;13.65;2.38;;;11.80;99.90;;;;;;5159612;27;20122;-81
2022/09/18 03:31:04;;;;;;;10.15;2.35;;;11.30;99.90;;;;;;5156902;27;20042;-81
2022/09/18 03:33:29;;;;;;;9.55;2.38;;;11.30;99.90;;;;;;5154538;27;20508;-81
2022/09/18 03:35:55;;;;;;;14.43;2.25;;;12.00;99.90;;;;;;5140817;27;20047;-81
2022/09/18 03:38:21;;;;;;;11.68;2.55;;;11.30;99.90;;;;;;5163612;27;20041;-81
2022/09/18 03:40:46;;;;;;;8.93;2.13;;;11.30;99.90;;;;;;5156474;27;20090;-81
2022/09/18 03:43:12;;;;;;;10.00;2.15;;;11.30;99.90;;;;;;5158081;27;20502;-82
2022/09/18 03:45:38;;;;;;;11.00;2.17;;;11.30;99.90;;;;;;5115970;27;20051;-81
2022/09/18 03:48:04;;;;;;;8.70;1.90;;;11.20;99.90;;;;;;5149740;27;20043;-81
2022/09/18 03:50:30;;;;;;;10.73;2.00;;;11.30;99.90;;;;;;5175147;27;20049;-81
2022/09/18 03:52:55;;;;;;;10.50;1.95;;;11.30;99.90;;;;;;5174386;27;20513;-81
2022/09/18 03:55:21;;;;;;;5.38;1.60;;;11.30;99.90;;;;;;5175829;27;20078;-81
2022/09/18 03:57:48;;;;;;;9.13;1.83;;;11.30;99.90;;;;;;5172903;27;20056;-81
2022/09/18 04:00:14;;;;;;;9.75;2.13;;;11.30;99.90;;;;;;5174578;27;20043;-81
2022/09/18 04:02:41;;;;;;;7.60;1.70;;;11.30;99.90;;;;;;5174289;27;20090;-81
2022/09/18 04:05:07;;;;;;;8.45;1.60;;;11.30;99.90;;;;;;5148939;27;20043;-81
2022/09/18 04:07:32;;;;;;;8.25;1.65;;;11.30;99.90;;;;;;5169075;27;20063;-81
2022/09/18 04:09:58;;;;;;;8.38;1.95;;;12.20;99.90;;;;;;5174201;27;20038;-81
2022/09/18 04:12:24;;;;;;;8.48;1.77;;;11.30;99.90;;;;;;5154256;27;20038;-81
2022/09/18 04:14:49;;;;;;;10.95;2.33;;;11.20;99.90;;;;;;5153932;27;20035;-82
2022/09/18 04:17:15;;;;;;;11.05;2.10;;;12.10;99.90;;;;;;5162956;27;20364;-81
2022/09/18 04:19:41;;;;;;;8.88;2.50;;;12.60;99.90;;;;;;5159647;27;20046;-81
2022/09/18 04:22:07;;;;;;;9.50;2.42;;;11.20;99.90;;;;;;5157349;27;20034;-82
2022/09/18 04:24:35;;;;;;;12.05;2.50;;;11.20;99.90;;;;;;5158958;27;20407;-81
2022/09/18 04:27:01;;;;;;;8.68;1.95;;;11.30;99.90;;;;;;5138548;27;20034;-82
2022/09/18 04:29:26;;;;;;;9.88;2.50;;;11.30;99.90;;;;;;5160385;27;20506;-81
2022/09/18 04:31:52;;;;;;;10.75;2.10;;;11.50;99.90;;;;;;5157499;27;20058;-81
2022/09/18 04:34:18;;;;;;;9.45;1.70;;;11.20;99.90;;;;;;5157380;27;20065;-81
2022/09/18 04:36:43;;;;;;;11.15;1.95;;;11.60;99.90;;;;;;5177238;27;20368;-81
2022/09/18 04:39:10;;;;;;;10.23;2.00;;;11.30;99.90;;;;;;5161609;27;20067;-81
2022/09/18 04:41:35;;;;;;;8.85;1.88;;;11.30;99.90;;;;;;5156839;27;20430;-81
2022/09/18 04:44:01;;;;;;;10.38;2.42;;;11.30;99.90;;;;;;5173626;27;20093;-81
2022/09/18 04:46:27;;;;;;;11.20;1.92;;;11.30;99.90;;;;;;5158451;27;20044;-81
2022/09/18 04:48:53;;;;;;;8.52;1.98;;;11.30;99.90;;;;;;5174954;27;20054;-81
2022/09/18 04:51:18;;;;;;;11.93;2.25;;;12.10;99.90;;;;;;5159152;27;20408;-81
2022/09/18 04:53:44;;;;;;;9.98;1.90;;;11.30;99.90;;;;;;5169982;27;20138;-81
2022/09/18 04:56:09;;;;;;;7.90;2.15;;;11.30;99.90;;;;;;5127784;27;20042;-81
2022/09/18 04:58:35;;;;;;;11.20;2.13;;;11.30;99.90;;;;;;5171506;27;20082;-82
2022/09/18 05:01:02;;;;;;;5.90;1.60;;;11.30;99.90;;;;;;5138391;27;20526;-80
2022/09/18 05:03:28;;;;;;;6.03;1.58;;;12.40;99.90;;;;;;5174374;27;20042;-81
2022/09/18 05:05:54;;;;;;;7.22;1.88;;;11.30;99.90;;;;;;5152741;27;20071;-81
2022/09/18 05:08:21;;;;;;;8.23;1.85;;;11.30;99.90;;;;;;5152346;27;20043;-81
2022/09/18 05:10:46;;;;;;;4.63;1.60;;;12.30;99.90;;;;;;5143950;27;20145;-81
2022/09/18 05:13:12;;;;;;;7.35;1.60;;;11.60;99.90;;;;;;5137844;27;20437;-81
2022/09/18 05:15:38;;;;;;;11.00;2.00;;;11.90;99.90;;;;;;5156707;27;20039;-81
2022/09/18 05:18:05;;;;;;;11.75;1.95;;;11.30;99.90;;;;;;5149784;27;20038;-81
2022/09/18 05:20:33;;;;;;;7.15;1.80;;;11.70;99.90;;;;;;5173856;27;20057;-81
2022/09/18 05:22:59;;;;;;;7.80;2.40;;;11.40;99.90;;;;;;5140310;27;20050;-81
2022/09/18 05:25:27;;;;;;;7.05;1.90;;;12.30;99.90;;;;;;5160796;27;20509;-81
2022/09/18 05:27:59;;;;;;;7.40;1.80;;;11.60;99.90;;;;;;5156727;27;20113;-82
2022/09/18 05:30:25;;;;;;;6.43;2.22;;;11.30;99.90;;;;;;5173843;27;20046;-81
2022/09/18 05:32:58;;;;;;;7.15;1.73;;;11.60;99.90;;;;;;5176904;27;20122;-82
2022/09/18 05:35:25;;;;;;;6.72;1.80;;;11.30;99.90;;;;;;5125048;27;20084;-81
2022/09/18 05:37:52;;;;;;;4.93;1.55;;;11.30;99.90;;;;;;5159769;27;20391;-81
2022/09/18 05:40:19;;;;;;;6.55;1.92;;;11.90;99.90;;;;;;5174867;27;20053;-81
2022/09/18 05:42:48;;;;;;;11.48;2.05;;;11.30;99.90;;;;;;5158067;27;20042;-80
2022/09/18 05:45:14;;;;;;;4.63;1.45;;;11.80;99.90;;;;;;5175172;27;20073;-80
2022/09/18 05:47:40;;;;;;;5.70;1.33;;;11.30;99.90;;;;;;5164199;27;20039;-82
2022/09/18 05:50:07;;;;;;;3.35;1.30;;;11.40;99.90;;;;;;5153680;27;20068;-82
2022/09/18 05:52:33;;;;;;;5.97;1.40;;;11.30;99.90;;;;;;5155562;27;20030;-81
2022/09/18 05:54:58;;;;;;;6.95;2.03;;;11.30;99.90;;;;;;5155855;27;20034;-80
2022/09/18 05:57:24;;;;;;;7.60;1.63;;;11.30;99.90;;;;;;5152120;27;20439;-81
2022/09/18 05:59:50;;;;;;;5.88;1.38;;;11.30;99.90;;;;;;5176809;27;20042;-81
2022/09/18 06:02:15;;;;;;;8.38;1.52;;;12.10;99.90;;;;;;5139574;27;20040;-81
2022/09/18 06:04:41;;;;;;;6.90;1.40;;;12.30;99.90;;;;;;5176555;27;20364;-81
2022/09/18 06:07:07;;;;;;;8.60;1.52;;;11.30;99.90;;;;;;5157755;27;20043;-80
2022/09/18 06:09:32;;;;;;;6.70;1.90;;;11.30;99.90;;;;;;5175517;27;20042;-81
2022/09/18 06:11:58;;;;;;;7.97;1.83;;;11.40;99.90;;;;;;5140351;27;20125;-81
2022/09/18 06:14:24;;;;;;;9.07;2.30;;;11.50;99.90;;;;;;5131804;27;20822;-81
2022/09/18 06:16:49;;;;;;;9.18;1.80;;;11.40;99.90;;;;;;5174664;27;20034;-81
2022/09/18 06:19:15;;;;;;;9.52;1.90;;;12.40;99.90;;;;;;5174982;27;20042;-81
2022/09/18 06:21:42;;;;;;;7.72;1.73;;;11.30;99.90;;;;;;5176531;27;20070;-81
2022/09/18 06:24:08;;;;;;;12.95;2.10;;;11.40;99.90;;;;;;5150939;27;20130;-81
2022/09/18 06:26:34;;;;;;;15.82;2.40;;;11.40;99.90;;;;;;5155077;27;20084;-81
2022/09/18 06:29:00;;;;;;;9.50;1.92;;;12.00;99.90;;;;;;5145037;27;20047;-81
2022/09/18 06:31:26;;;;;;;10.00;2.10;;;11.50;99.90;;;;;;5154588;27;20376;-80
2022/09/18 06:33:52;;;;;;;12.98;2.17;;;12.50;99.90;;;;;;5163842;27;20126;-81
2022/09/18 06:36:17;;;;;;;6.95;1.67;;;11.50;99.90;;;;;;5115690;27;20051;-80
2022/09/18 06:38:43;;;;;;;9.65;2.33;;;12.60;99.90;;;;;;5134763;27;20081;-80
2022/09/18 06:41:09;;;;;;;11.15;2.10;;;12.10;99.90;;;;;;5149553;27;20095;-81
2022/09/18 06:43:35;;;;;;;9.95;2.25;;;12.50;99.90;;;;;;5134234;27;20043;-81
2022/09/18 06:46:01;;;;;;;9.38;1.98;;;11.50;99.90;;;;;;5140900;27;20084;-81
2022/09/18 06:48:30;;;;;;;10.82;1.80;;;11.60;99.90;;;;;;5154049;27;20037;-80
2022/09/18 06:50:58;;;;;;;5.65;1.83;;;11.60;99.90;;;;;;5156848;27;20042;-80
2022/09/18 06:53:25;;;;;;;6.50;1.60;;;11.70;99.90;;;;;;5176535;27;20038;-81
2022/09/18 06:55:51;;;;;;;4.38;1.50;;;11.70;99.90;;;;;;5175790;27;20042;-81
2022/09/18 06:58:18;;;;;;;6.93;1.58;;;11.80;99.90;;;;;;5176249;27;20483;-80
2022/09/18 07:00:44;;;;;;;12.68;2.00;;;12.20;99.90;;;;;;5139443;27;20042;-81
2022/09/18 07:03:10;;;;;;;7.82;1.50;;;11.80;99.90;;;;;;5173780;27;20034;-80
2022/09/18 07:05:44;;;;;;;8.57;2.00;;;12.70;99.90;;;;;;5156598;27;20045;-80
2022/09/18 07:08:10;;;;;;;8.68;2.00;;;11.90;99.90;;;;;;5175634;27;20053;-81
2022/09/18 07:10:36;;;;;;;6.93;1.50;;;11.90;99.90;;;;;;5175171;27;20059;-80
2022/09/18 07:13:03;;;;;;;8.95;1.50;;;11.80;99.90;;;;;;5170801;27;20042;-81
2022/09/18 07:15:30;;;;;;;11.27;2.30;;;11.80;99.90;;;;;;5152914;27;20045;-80
2022/09/18 07:18:00;;;;;;;6.30;1.50;;;11.90;99.90;;;;;;5136107;27;20046;-81
2022/09/18 07:20:28;;;;;;;10.15;1.73;;;11.90;99.90;;;;;;5135508;27;20047;-81
2022/09/18 07:22:58;;;;;;;6.10;1.52;;;12.20;99.90;;;;;;5131472;28;20067;-80
2022/09/18 07:25:26;;;;;;;9.32;1.67;;;11.90;99.90;;;;;;5134042;28;20050;-81
2022/09/18 07:27:51;;;;;;;6.85;1.42;;;11.90;99.90;;;;;;5134077;28;20047;-81
2022/09/18 07:30:19;;;;;;;8.25;1.75;;;11.90;99.90;;;;;;5160420;27;20335;-80
2022/09/18 07:32:47;;;;;;;8.02;1.58;;;11.90;99.90;;;;;;5140457;27;20047;-79
2022/09/18 07:35:13;;;;;;;8.18;1.35;;;12.30;99.90;;;;;;5170252;27;20070;-80
2022/09/18 07:37:39;;;;;;;7.70;1.60;;;11.90;99.90;;;;;;5135320;27;20457;-80
2022/09/18 07:40:08;;;;;;;8.88;1.40;;;11.90;99.90;;;;;;5154001;27;20084;-79
2022/09/18 07:42:34;;;;;;;6.95;1.85;;;12.00;99.90;;;;;;5152567;27;20395;-75
2022/09/18 07:45:00;;;;;;;8.50;1.98;;;12.00;99.90;;;;;;5151934;27;20107;-77
2022/09/18 07:47:26;;;;;;;5.82;1.63;;;12.00;99.90;;;;;;5152119;27;20422;-75
2022/09/18 07:49:52;;;;;;;3.60;1.55;;;12.40;99.90;;;;;;5152709;27;20085;-75
2022/09/18 07:52:18;;;;;;;8.80;1.92;;;12.10;99.90;;;;;;5150956;27;20070;-77
2022/09/18 07:54:43;;;;;;;4.93;1.52;;;12.00;99.90;;;;;;5136828;27;20036;-77
2022/09/18 07:57:09;;;;;;;8.73;2.78;;;12.70;99.90;;;;;;5136634;27;20042;-77
2022/09/18 07:59:35;;;;;;;8.55;2.03;;;12.10;99.90;;;;;;5118985;27;20031;-77
2022/09/18 08:02:00;;;;;;;6.30;1.80;;;11.90;99.90;;;;;;5118084;27;20038;-76
2022/09/18 08:04:26;;;;;;;8.30;2.00;;;12.10;99.90;;;;;;5134262;27;20043;-76
2022/09/18 08:06:52;;;;;;;6.97;2.00;;;11.90;99.90;;;;;;5156836;27;20075;-76
2022/09/18 08:09:18;;;;;;;7.47;1.70;;;11.90;99.90;;;;;;5156179;27;20069;-76
2022/09/18 08:11:44;;;;;;;6.90;1.60;;;12.60;99.90;;;;;;5135844;27;20035;-76
2022/09/18 08:14:11;;;;;;;8.27;1.90;;;11.80;99.90;;;;;;5158879;27;20399;-77
2022/09/18 08:16:36;;;;;;;6.43;2.10;;;11.80;99.90;;;;;;5138598;27;20038;-76
2022/09/18 08:19:02;;;;;;;10.23;2.15;;;13.00;99.90;;;;;;5158742;27;20087;-76
2022/09/18 08:21:31;;;;;;;7.95;1.80;;;11.70;99.90;;;;;;5139076;27;20034;-76
2022/09/18 08:23:57;;;;;;;11.40;2.10;;;11.80;99.90;;;;;;5150017;27;20058;-76
2022/09/18 08:26:22;;;;;;;7.32;1.88;;;11.80;99.90;;;;;;5157060;27;20344;-76
2022/09/18 08:28:48;;;;;;;7.30;1.90;;;11.80;99.90;;;;;;5157330;27;20497;-78
2022/09/18 08:31:14;;;;;;;6.70;2.00;;;11.70;99.90;;;;;;5157097;27;20502;-79
2022/09/18 08:33:39;;;;;;;7.45;1.70;;;11.80;99.90;;;;;;5157013;27;20047;-79
2022/09/18 08:36:06;;;;;;;9.85;1.92;;;12.10;99.90;;;;;;5143135;27;20148;-79
2022/09/18 08:38:33;;;;;;;7.65;2.50;;;11.70;99.90;;;;;;5158835;27;20105;-78
2022/09/18 08:41:21;;;;;;;6.10;2.13;;;11.80;99.90;;;;;;5150147;27;20130;-77
2022/09/18 08:44:02;;;;;;;12.93;1.80;;;11.90;99.90;;;;;;5156868;27;20070;-78
2022/09/18 08:46:36;;;;;;;6.70;1.80;;;11.70;99.90;;;;;;5156018;27;20515;-78
2022/09/18 08:49:22;;;;;;;8.73;1.83;;;11.70;99.90;;;;;;5157025;27;20050;-78
2022/09/18 08:52:09;;;;;;;5.53;1.70;;;11.70;99.90;;;;;;5153017;27;20043;-79
2022/09/18 08:54:41;;;;;;;8.55;2.03;;;11.70;99.90;;;;;;5166903;27;20063;-79
2022/09/18 08:57:22;;;;;;;7.68;2.20;;;11.70;99.90;;;;;;5156670;27;20137;-78
2022/09/18 08:59:53;;;;;;;11.73;2.20;;;11.70;99.90;;;;;;5141866;27;20392;-78
2022/09/18 09:02:22;;;;;;;6.78;2.53;;;11.70;99.90;;;;;;5141420;27;20429;-78
2022/09/18 09:04:48;;;;;;;9.18;2.50;;;11.80;99.90;;;;;;5177008;27;20038;-78
2022/09/18 09:07:38;;;;;;;6.32;1.98;;;11.80;99.90;;;;;;5157813;27;20053;-78
2022/09/18 09:10:22;;;;;;;7.00;1.92;;;11.80;99.90;;;;;;5116994;27;20049;-78
2022/09/18 09:12:59;;;;;;;8.55;1.70;;;11.80;99.90;;;;;;5133627;27;20035;-77
2022/09/18 09:15:40;;;;;;;8.32;2.03;;;11.80;99.90;;;;;;5176289;27;20058;-76
2022/09/18 09:18:16;;;;;;;9.48;2.10;;;11.80;99.90;;;;;;5158946;27;20046;-77
2022/09/18 09:20:57;;;;;;;10.43;1.70;;;11.80;99.90;;;;;;5176764;27;20038;-76
2022/09/18 09:23:47;;;;;;;9.73;1.70;;;11.70;99.90;;;;;;5141581;27;20126;-77
2022/09/18 09:26:17;;;;;;;9.63;2.15;;;11.80;99.90;;;;;;5176686;27;20395;-77
2022/09/18 09:28:45;;;;;;;8.23;1.90;;;11.80;99.90;;;;;;5174918;27;20048;-77
2022/09/18 09:31:14;;;;;;;8.38;1.75;;;11.60;99.90;;;;;;5157494;27;20432;-77
2022/09/18 09:33:57;;;;;;;8.10;2.00;;;11.60;99.90;;;;;;5175398;27;20056;-77
2022/09/18 09:36:27;;;;;;;5.55;2.00;;;11.60;99.90;;;;;;5141558;27;20130;-77
2022/09/18 09:39:12;;;;;;;8.32;2.10;;;11.70;99.90;;;;;;5135379;27;20036;-77
2022/09/18 09:41:48;;;;;;;10.65;2.08;;;11.70;99.90;;;;;;5134529;27;20054;-77
2022/09/18 09:44:13;;;;;;;;;;;12.80;99.90;;;;;;5151589;27;20038;-78
2022/09/18 09:47:00;;;;;;;8.43;2.20;;;11.80;99.90;;;;;;5137027;27;19971;-77
2022/09/18 09:49:30;;;;;;;12.88;2.20;;;11.80;99.90;;;;;;5138603;27;20294;-77
2022/09/18 09:52:11;;;;;;;7.00;2.65;;;11.90;99.90;;;;;;5155395;27;20074;-77
2022/09/18 09:54:37;;;;;;;7.90;2.70;;;12.00;99.90;;;;;;5155404;27;20046;-74
2022/09/18 09:57:15;;;;;;;11.00;3.10;;;12.00;99.90;;;;;;5155385;27;20387;-77
2022/09/18 09:59:55;;;;;;;11.18;3.00;;;12.00;99.90;;;;;;5147528;27;20060;-77
2022/09/18 10:02:40;;;;;;;12.52;3.10;;;12.10;99.90;;;;;;5175249;27;20042;-80
2022/09/18 10:05:28;;;;;;;11.07;2.88;;;12.10;99.90;;;;;;5157666;27;20050;-79
2022/09/18 10:08:16;;;;;;;8.57;3.00;;;12.10;99.90;;;;;;5176704;27;20144;-80
2022/09/18 10:11:02;;;;;;;10.52;3.03;;;12.10;99.90;;;;;;5157585;27;20382;-79
2022/09/18 10:13:51;;;;;;;11.25;3.10;;;12.70;99.90;;;;;;5151432;27;20038;-79
2022/09/18 10:16:32;;;;;;;10.38;3.13;;;12.20;99.90;;;;;;5154366;27;20068;-78
2022/09/18 10:18:59;;;;;;;12.02;2.95;;;12.20;99.90;;;;;;5136841;27;20095;-78
2022/09/18 10:21:27;;;;;;;12.60;3.00;;;12.30;99.90;;;;;;5136373;27;20147;-77
2022/09/18 10:24:15;;;;;;;9.23;3.00;;;12.20;99.90;;;;;;5154037;27;20053;-78
2022/09/18 10:26:47;;;;;;;11.18;3.35;;;12.30;99.90;;;;;;5154939;27;20045;-78
2022/09/18 10:29:14;;;;;;;9.98;3.17;;;12.30;99.90;;;;;;5119395;27;20050;-77
2022/09/18 10:31:54;;;;;;;10.15;3.00;;;12.70;99.90;;;;;;5135901;27;20081;-78
2022/09/18 10:34:48;;;;;;;13.80;3.60;;;12.40;99.90;;;;;;5154912;27;20050;-78
2022/09/18 10:37:27;;;;;;;13.10;3.00;;;12.50;99.90;;;;;;5154790;27;20398;-78
2022/09/18 10:39:58;;;;;;;13.25;3.47;;;12.50;99.90;;;;;;5135715;27;20146;-78
2022/09/18 10:42:27;;;;;;;8.00;2.78;;;12.70;99.90;;;;;;5152503;27;20399;-78
2022/09/18 10:44:59;;;;;;;12.43;2.83;;;12.70;99.90;;;;;;5155267;27;20498;-78
2022/09/18 10:47:27;;;;;;;9.57;2.25;;;12.60;99.90;;;;;;5153981;27;20398;-78
2022/09/18 10:50:05;;;;;;;11.73;2.30;;;12.60;99.90;;;;;;5154538;27;20395;-77
2022/09/18 10:52:47;;;;;;;12.43;2.65;;;12.60;99.90;;;;;;5144630;27;20039;-78
2022/09/18 10:55:26;;;;;;;11.23;2.33;;;12.70;99.90;;;;;;5132943;27;20125;-78
2022/09/18 10:58:02;;;;;;;7.53;1.98;;;12.80;99.90;;;;;;5133528;27;20058;-78
2022/09/18 11:00:29;;;;;;;11.05;1.90;;;12.80;99.90;;;;;;5148634;27;20039;-78
2022/09/18 11:03:12;;;;;;;10.10;2.10;;;12.90;99.90;;;;;;5135877;27;20064;-78
2022/09/18 11:05:57;;;;;;;6.68;2.22;;;13.00;99.90;;;;;;5155689;27;20458;-78
2022/09/18 11:08:28;;;;;;;7.88;2.35;;;13.10;99.90;;;;;;5115603;28;20126;-77
2022/09/18 11:11:04;;;;;;;9.50;2.08;;;13.70;99.90;;;;;;5135423;27;20051;-78
2022/09/18 11:13:30;;;;;;;;;;;13.20;99.90;;;;;;5112200;28;20039;-75
2022/09/18 11:15:57;;;;;;;8.65;1.67;;;13.00;99.90;;;;;;5130170;27;19983;-77
2022/09/18 11:18:24;;;;;;;9.50;1.80;;;13.40;99.90;;;;;;5115744;27;20107;-75
2022/09/18 11:20:51;;;;;;;8.55;1.90;;;14.10;99.90;;;;;;5149661;27;20038;-75
2022/09/18 11:23:24;;;;;;;11.02;1.92;;;14.30;99.90;;;;;;5131852;27;20066;-76
2022/09/18 11:26:26;;;;;;;10.38;1.92;;;13.70;99.90;;;;;;5131435;27;20058;-76
2022/09/18 11:29:38;;;;;;;9.57;2.28;;;13.70;99.90;;;;;;5154483;27;20042;-76
2022/09/18 11:32:21;;;;;;;9.65;2.17;;;13.80;99.90;;;;;;5114970;27;20466;-76
2022/09/18 11:34:53;;;;;;;7.72;1.70;;;14.20;99.90;;;;;;5133819;27;20092;-76
2022/09/18 11:37:27;;;;;;;9.63;1.75;;;14.00;99.90;;;;;;5152165;27;20173;-76
2022/09/18 11:40:04;;;;;;;7.55;1.50;;;14.60;99.90;;;;;;5154652;27;20042;-75
2022/09/18 11:42:31;;;;;;;6.35;1.80;;;14.10;99.90;;;;;;5154638;27;20401;-75
2022/09/18 11:45:48;;;;;;;8.25;1.70;;;14.30;99.90;;;;;;5146542;27;20058;-80
2022/09/18 11:48:25;;;;;;;16.48;2.10;;;14.30;99.90;;;;;;5085086;27;20159;-78
2022/09/18 11:50:55;;;;;;;13.55;1.90;;;14.40;99.90;;;;;;5138725;27;20047;-76
2022/09/18 11:53:28;;;;;;;9.75;2.08;;;15.60;99.90;;;;;;5140628;27;20039;-78
2022/09/18 11:56:06;;;;;;;9.45;1.92;;;14.80;99.90;;;;;;5140233;27;20115;-78
2022/09/18 11:58:44;;;;;;;10.90;1.73;;;14.50;99.90;;;;;;5163313;27;20038;-79
2022/09/18 12:01:26;;;;;;;13.30;2.25;;;14.50;99.90;;;;;;5108260;27;20053;-79
2022/09/18 12:04:18;;;;;;;7.65;1.80;;;14.50;99.90;;;;;;5136780;27;20451;-79
2022/09/18 12:06:52;;;;;;;10.75;2.10;;;14.50;99.90;;;;;;5163889;27;20043;-79
2022/09/18 12:09:39;;;;;;;8.55;2.00;;;14.40;99.90;;;;;;5138290;27;20042;-79
2022/09/18 12:12:13;;;;;;;11.15;2.30;;;14.50;99.90;;;;;;5148065;27;20045;-78
2022/09/18 12:14:50;;;;;;;7.53;1.75;;;14.00;99.90;;;;;;5171747;27;20034;-79
2022/09/18 12:17:33;;;;;;;7.93;1.67;;;14.40;99.90;;;;;;5168869;27;20094;-79
2022/09/18 12:20:06;;;;;;;9.40;2.10;;;14.50;99.90;;;;;;5150685;27;20507;-78
2022/09/18 12:22:47;;;;;;;9.00;2.08;;;14.60;99.90;;;;;;5163320;27;20038;-78
2022/09/18 12:25:14;;;;;;;8.07;2.20;;;14.60;99.90;;;;;;5138992;27;20394;-76
2022/09/18 12:28:12;;;;;;;8.02;2.00;;;14.70;99.90;;;;;;5125925;27;20368;-77
2022/09/18 12:30:51;;;;;;;10.18;1.88;;;14.80;99.90;;;;;;5146826;27;20046;-79
2022/09/18 12:33:28;;;;;;;8.55;1.70;;;14.90;99.90;;;;;;5155347;27;20137;-78
2022/09/18 12:36:19;;;;;;;9.93;1.70;;;14.90;99.90;;;;;;5152530;27;20043;-78
2022/09/18 12:39:14;;;;;;;6.75;1.58;;;15.20;99.90;;;;;;5156428;27;20046;-78
2022/09/18 12:41:51;;;;;;;8.90;2.10;;;15.70;99.90;;;;;;5157033;27;20043;-80
2022/09/18 12:44:48;;;;;;;7.43;1.65;;;15.20;99.90;;;;;;5158271;27;20046;-79
2022/09/18 12:47:32;;;;;;;6.35;1.77;;;15.20;99.90;;;;;;5157092;27;20034;-81
2022/09/18 12:50:00;;;;;;;6.20;1.67;;;15.20;99.90;;;;;;5137393;27;20047;-79
2022/09/18 12:52:39;;;;;;;6.43;1.50;;;15.20;99.90;;;;;;5133122;27;20039;-79
2022/09/18 12:55:30;;;;;;;3.65;1.25;;;15.30;99.90;;;;;;5137001;27;20099;-78
2022/09/18 12:58:01;;;;;;;7.60;1.70;;;15.40;99.90;;;;;;5165470;27;20165;-78
2022/09/18 13:00:27;;;;;;;6.57;1.58;;;15.40;99.90;;;;;;5159240;27;20046;-78
2022/09/18 13:02:56;;;;;;;5.95;1.67;;;15.40;99.90;;;;;;5154119;27;20125;-78
2022/09/18 13:05:24;;;;;;;6.88;1.73;;;15.40;99.90;;;;;;5169521;27;20507;-78
2022/09/18 13:07:56;;;;;;;4.15;1.50;;;15.40;99.90;;;;;;5143318;27;20034;-78